You are listening to:
CYFB Montreal Center - Iqaluit, Nunavut, Canada

CYFB 220400Z 14026G34KT 20SM BKN010 BKN140 OVC200 02/M00 A2960 RMK SF5AC1CI2 SLP027

If stream doesn't start automatically press the play button
If stream stops then reload player then press play